createdAt,value
2018-05-04T00:01:54.726Z,3.42
2018-05-04T00:04:21.359Z,4.18
2018-05-04T00:06:48.043Z,4.00
2018-05-04T00:09:14.662Z,4.03
2018-05-04T00:11:41.310Z,4.10
2018-05-04T00:14:07.959Z,4.05
2018-05-04T00:16:34.603Z,3.03
2018-05-04T00:19:01.235Z,3.70
2018-05-04T00:21:27.876Z,3.00
2018-05-04T00:23:54.611Z,3.83
2018-05-04T00:26:21.248Z,3.20
2018-05-04T00:28:47.917Z,3.05
2018-05-04T00:31:14.538Z,3.08
2018-05-04T00:33:41.170Z,3.60
2018-05-04T00:36:07.811Z,3.40
2018-05-04T00:38:34.426Z,3.70
2018-05-04T00:41:01.083Z,2.90
2018-05-04T00:43:27.734Z,3.45
2018-05-04T00:45:54.350Z,3.60
2018-05-04T00:48:20.997Z,3.35
2018-05-04T00:50:47.621Z,4.00
2018-05-04T00:53:14.238Z,3.55
2018-05-04T00:55:40.875Z,2.95
2018-05-04T00:58:07.564Z,3.25
2018-05-04T01:00:34.199Z,3.40
2018-05-04T01:03:00.845Z,2.70
2018-05-04T01:05:27.578Z,3.33
2018-05-04T01:07:54.196Z,3.30
2018-05-04T01:10:20.833Z,3.20
2018-05-04T01:12:47.451Z,3.40
2018-05-04T01:15:14.162Z,3.67
2018-05-04T01:17:40.879Z,3.87
2018-05-04T01:20:07.514Z,3.15
2018-05-04T01:22:34.130Z,3.78
2018-05-04T01:25:00.771Z,3.00
2018-05-04T01:27:27.427Z,3.37
2018-05-04T01:29:54.076Z,3.75
2018-05-04T01:32:20.809Z,3.45
2018-05-04T01:34:47.463Z,3.37
2018-05-04T01:37:14.119Z,4.20
2018-05-04T01:39:40.755Z,3.60
2018-05-04T01:42:07.373Z,3.45
2018-05-04T01:44:34.037Z,4.43
2018-05-04T01:47:00.667Z,3.87
2018-05-04T01:49:27.288Z,4.10
2018-05-04T01:51:53.931Z,3.80
2018-05-04T01:54:20.672Z,4.05
2018-05-04T01:56:47.298Z,4.62
2018-05-04T01:59:13.942Z,3.97
2018-05-04T02:01:40.588Z,4.18
2018-05-04T02:04:07.222Z,4.28
2018-05-04T02:06:33.847Z,4.05
2018-05-04T02:09:00.495Z,5.37
2018-05-04T02:11:27.139Z,4.82
2018-05-04T02:13:53.759Z,4.87
2018-05-04T02:16:20.424Z,5.03
2018-05-04T02:18:47.047Z,4.12
2018-05-04T02:21:13.673Z,4.37
2018-05-04T02:23:40.310Z,4.53
2018-05-04T02:26:06.936Z,4.40
2018-05-04T02:28:33.615Z,4.40
2018-05-04T02:31:00.256Z,4.60
2018-05-04T02:33:26.875Z,4.90
2018-05-04T02:35:53.539Z,5.87
2018-05-04T02:38:20.173Z,6.12
2018-05-04T02:40:46.798Z,6.65
2018-05-04T02:43:13.446Z,6.75
2018-05-04T02:45:40.191Z,8.63
2018-05-04T02:48:06.816Z,7.05
2018-05-04T02:50:33.444Z,6.82
2018-05-04T02:53:00.100Z,8.20
2018-05-04T02:55:26.736Z,7.53
2018-05-04T02:57:53.368Z,8.90
2018-05-04T03:00:20.016Z,8.95
2018-05-04T03:02:46.639Z,8.07
2018-05-04T03:05:13.307Z,8.88
2018-05-04T03:07:40.084Z,8.65
2018-05-04T03:10:06.935Z,7.87
2018-05-04T03:12:33.561Z,7.10
2018-05-04T03:15:00.204Z,7.75
2018-05-04T03:17:26.884Z,8.27
2018-05-04T03:19:53.546Z,7.15
2018-05-04T03:22:20.186Z,8.25
2018-05-04T03:24:46.927Z,9.27
2018-05-04T03:27:13.610Z,8.48
2018-05-04T03:29:40.362Z,8.77
2018-05-04T03:32:07.075Z,9.15
2018-05-04T03:34:33.923Z,8.35
2018-05-04T03:37:00.761Z,8.35
2018-05-04T03:39:27.396Z,9.13
2018-05-04T03:41:55.274Z,8.60
2018-05-04T03:44:22.221Z,9.05
2018-05-04T03:46:49.065Z,9.80
2018-05-04T03:49:15.779Z,8.48
2018-05-04T03:51:42.433Z,8.32
2018-05-04T03:54:09.167Z,8.88
2018-05-04T03:56:35.808Z,10.20
2018-05-04T03:59:08.509Z,8.88
2018-05-04T04:01:41.079Z,9.68
2018-05-04T04:04:12.559Z,8.43
2018-05-04T04:06:39.484Z,8.93
2018-05-04T04:09:06.190Z,8.20
2018-05-04T04:11:33.997Z,8.50
2018-05-04T04:14:00.707Z,8.07
2018-05-04T04:16:27.702Z,8.15
2018-05-04T04:18:54.355Z,8.05
2018-05-04T04:21:20.979Z,6.87
2018-05-04T04:23:47.598Z,7.70
2018-05-04T04:26:14.336Z,7.15
2018-05-04T04:28:40.949Z,7.55
2018-05-04T04:31:07.584Z,6.28
2018-05-04T04:33:34.214Z,6.40
2018-05-04T04:36:00.834Z,7.35
2018-05-04T04:38:27.458Z,6.53
2018-05-04T04:40:54.098Z,6.47
2018-05-04T04:43:20.783Z,6.37
2018-05-04T04:45:47.451Z,7.53
2018-05-04T04:48:14.167Z,7.10
2018-05-04T04:50:40.789Z,6.35
2018-05-04T04:53:07.443Z,6.25
2018-05-04T04:55:34.087Z,7.37
2018-05-04T04:58:00.818Z,6.32
2018-05-04T05:00:27.434Z,6.10
2018-05-04T05:02:54.094Z,5.68
2018-05-04T05:05:20.740Z,5.97
2018-05-04T05:07:47.357Z,6.18
2018-05-04T05:10:14.024Z,6.40
2018-05-04T05:12:40.646Z,6.30
2018-05-04T05:15:07.304Z,5.95
2018-05-04T05:17:33.943Z,5.60
2018-05-04T05:20:00.558Z,6.55
2018-05-04T05:22:27.185Z,5.77
2018-05-04T05:24:53.823Z,5.43
2018-05-04T05:27:20.491Z,5.03
2018-05-04T05:29:47.117Z,4.57
2018-05-04T05:32:13.758Z,4.70
2018-05-04T05:34:40.416Z,4.68
2018-05-04T05:37:07.156Z,4.97
2018-05-04T05:39:33.896Z,5.32
2018-05-04T05:42:00.527Z,5.20
2018-05-04T05:44:27.151Z,4.97
2018-05-04T05:46:53.838Z,4.80
2018-05-04T05:49:20.551Z,4.70
2018-05-04T05:51:47.230Z,4.77
2018-05-04T05:54:13.861Z,4.93
2018-05-04T05:56:40.497Z,4.30
2018-05-04T05:59:07.119Z,5.03
2018-05-04T06:01:33.755Z,5.45
2018-05-04T06:04:00.562Z,5.50
2018-05-04T06:06:27.869Z,5.35
2018-05-04T06:08:54.611Z,5.53
2018-05-04T06:11:21.299Z,4.15
2018-05-04T06:13:47.995Z,5.37
2018-05-04T06:16:14.642Z,6.03
2018-05-04T06:18:41.275Z,6.30
2018-05-04T06:21:08.014Z,5.85
2018-05-04T06:23:34.732Z,5.95
2018-05-04T06:26:01.352Z,6.17
2018-05-04T06:28:28.003Z,5.70
2018-05-04T06:30:54.647Z,5.97
2018-05-04T06:33:21.262Z,5.43
2018-05-04T06:35:47.928Z,5.10
2018-05-04T06:38:14.568Z,5.07
2018-05-04T06:40:41.311Z,4.80
2018-05-04T06:43:07.938Z,5.32
2018-05-04T06:45:34.678Z,5.17
2018-05-04T06:48:01.307Z,4.73
2018-05-04T06:50:27.923Z,4.70
2018-05-04T06:52:54.558Z,4.78
2018-05-04T06:55:21.239Z,5.22
2018-05-04T06:57:47.906Z,5.30
2018-05-04T07:00:14.540Z,5.20
2018-05-04T07:02:41.264Z,6.00
2018-05-04T07:05:07.892Z,5.35
2018-05-04T07:07:34.646Z,4.50
2018-05-04T07:10:01.284Z,4.65
2018-05-04T07:12:27.923Z,5.35
2018-05-04T07:14:54.664Z,5.03
2018-05-04T07:17:21.430Z,4.40
2018-05-04T07:19:48.052Z,4.55
2018-05-04T07:22:14.685Z,4.27
2018-05-04T07:24:41.323Z,5.65
2018-05-04T07:27:07.955Z,5.60
2018-05-04T07:29:34.595Z,5.40
2018-05-04T07:32:01.225Z,4.82
2018-05-04T07:34:27.903Z,4.87
2018-05-04T07:36:54.620Z,5.35
2018-05-04T07:39:21.244Z,6.00
2018-05-04T07:41:47.884Z,5.33
2018-05-04T07:44:14.523Z,4.83
2018-05-04T07:46:41.138Z,4.77
2018-05-04T07:49:07.839Z,5.40
2018-05-04T07:51:34.567Z,4.82
2018-05-04T07:54:01.193Z,4.67
2018-05-04T07:56:33.876Z,5.00
2018-05-04T07:59:00.508Z,3.87
2018-05-04T08:01:27.132Z,4.90
2018-05-04T08:03:53.786Z,4.60
2018-05-04T08:06:20.407Z,4.70
2018-05-04T08:08:47.079Z,5.50
2018-05-04T08:11:13.805Z,4.50
2018-05-04T08:13:40.431Z,5.90
2018-05-04T08:16:07.082Z,4.90
2018-05-04T08:18:33.835Z,5.27
2018-05-04T08:21:00.458Z,4.47
2018-05-04T08:23:27.074Z,3.77
2018-05-04T08:25:53.704Z,4.33
2018-05-04T08:28:20.326Z,5.30
2018-05-04T08:30:46.956Z,4.93
2018-05-04T08:33:13.589Z,4.70
2018-05-04T08:35:40.299Z,4.70
2018-05-04T08:38:06.925Z,4.45
2018-05-04T08:40:33.663Z,3.73
2018-05-04T08:43:00.263Z,4.43
2018-05-04T08:45:26.864Z,4.72
2018-05-04T08:47:53.607Z,5.30
2018-05-04T08:50:20.233Z,3.60
2018-05-04T08:52:46.856Z,4.57
2018-05-04T08:55:13.490Z,5.53
2018-05-04T08:57:40.164Z,5.15
2018-05-04T09:00:06.782Z,5.80
2018-05-04T09:02:33.423Z,6.28
2018-05-04T09:05:00.105Z,5.50
2018-05-04T09:07:26.810Z,6.87
2018-05-04T09:09:53.464Z,5.70
2018-05-04T09:12:20.202Z,6.67
2018-05-04T09:14:46.829Z,5.40
2018-05-04T09:17:13.571Z,5.57
2018-05-04T09:19:40.206Z,6.78
2018-05-04T09:22:06.835Z,6.40
2018-05-04T09:24:33.470Z,5.87
2018-05-04T09:27:00.087Z,6.32
2018-05-04T09:29:26.701Z,5.95
2018-05-04T09:31:53.440Z,4.87
2018-05-04T09:34:20.063Z,5.70
2018-05-04T09:36:46.795Z,5.72
2018-05-04T09:39:13.547Z,5.70
2018-05-04T09:41:41.103Z,4.95
2018-05-04T09:44:08.583Z,4.78
2018-05-04T09:46:35.231Z,5.05
2018-05-04T09:49:01.922Z,5.43
2018-05-04T09:51:28.600Z,5.07
2018-05-04T09:53:55.239Z,4.70
2018-05-04T09:56:21.883Z,4.47
2018-05-04T09:58:48.506Z,4.75
2018-05-04T10:01:15.134Z,5.45
2018-05-04T10:03:41.768Z,5.83
2018-05-04T10:06:08.387Z,5.20
2018-05-04T10:08:35.024Z,4.80
2018-05-04T10:11:01.689Z,5.70
2018-05-04T10:13:28.337Z,5.90
2018-05-04T10:15:55.885Z,6.50
2018-05-04T10:18:22.607Z,5.62
2018-05-04T10:20:49.238Z,6.07
2018-05-04T10:23:15.915Z,5.68
2018-05-04T10:25:42.573Z,3.90
2018-05-04T10:28:09.190Z,4.93
2018-05-04T10:30:35.831Z,5.30
2018-05-04T10:33:02.577Z,8.23
2018-05-04T10:35:29.200Z,5.28
2018-05-04T10:37:58.492Z,4.28
2018-05-04T10:40:27.972Z,6.37
2018-05-04T10:42:55.805Z,5.43
2018-05-04T10:45:22.519Z,5.03
2018-05-04T10:47:49.146Z,4.62
2018-05-04T10:50:15.763Z,6.55
2018-05-04T10:52:42.440Z,4.70
2018-05-04T10:55:09.069Z,4.40
2018-05-04T10:57:35.699Z,6.72
2018-05-04T11:00:02.362Z,5.50
2018-05-04T11:02:29.020Z,3.73
2018-05-04T11:04:55.740Z,4.30
2018-05-04T11:07:22.596Z,5.22
2018-05-04T11:09:49.227Z,4.00
2018-05-04T11:12:15.846Z,4.32
2018-05-04T11:14:42.656Z,6.70
2018-05-04T11:17:09.271Z,5.17
2018-05-04T11:19:35.979Z,5.50
2018-05-04T11:22:02.715Z,8.20
2018-05-04T11:24:29.362Z,4.53
2018-05-04T11:26:55.984Z,5.25
2018-05-04T11:29:22.643Z,3.75
2018-05-04T11:31:49.271Z,4.03
2018-05-04T11:34:15.918Z,4.53
2018-05-04T11:36:42.559Z,3.60
2018-05-04T11:39:09.187Z,3.72
2018-05-04T11:41:35.861Z,4.00
2018-05-04T11:44:02.499Z,3.92
2018-05-04T11:46:29.114Z,3.30
2018-05-04T11:48:55.736Z,4.37
2018-05-04T11:51:22.396Z,3.75
2018-05-04T11:53:49.139Z,5.28
2018-05-04T11:56:15.764Z,2.97
2018-05-04T11:58:42.516Z,5.32
2018-05-04T12:01:09.131Z,3.67
2018-05-04T12:03:35.824Z,3.35
2018-05-04T12:06:02.463Z,3.92
2018-05-04T12:08:29.176Z,3.97
2018-05-04T12:10:55.840Z,3.75
2018-05-04T12:13:22.451Z,3.40
2018-05-04T12:15:49.320Z,3.60
2018-05-04T12:18:15.958Z,4.00
2018-05-04T12:20:42.684Z,3.40
2018-05-04T12:23:09.431Z,3.15
2018-05-04T12:25:36.068Z,3.35
2018-05-04T12:32:55.387Z,3.40
2018-05-04T12:37:48.227Z,11.90
2018-05-04T12:40:14.874Z,2.85
2018-05-04T12:42:41.516Z,7.00
2018-05-04T12:47:34.374Z,16.10
2018-05-04T12:50:01.024Z,3.30
2018-05-04T12:52:27.657Z,5.30
2018-05-04T12:57:20.541Z,3.80
2018-05-04T12:59:47.159Z,3.20
2018-05-04T13:02:13.792Z,14.30
2018-05-04T13:04:40.432Z,8.40
2018-05-04T13:07:07.046Z,3.40
2018-05-04T13:09:33.740Z,4.80
2018-05-04T13:12:00.460Z,2.95
2018-05-04T13:14:27.091Z,12.33
2018-05-04T13:16:53.735Z,3.25
2018-05-04T13:19:20.376Z,3.00
2018-05-04T13:21:47.004Z,3.30
2018-05-04T13:24:13.652Z,3.85
2018-05-04T13:26:40.291Z,3.70
2018-05-04T13:29:06.957Z,2.90
2018-05-04T13:31:33.670Z,3.57
2018-05-04T13:34:00.311Z,2.93
2018-05-04T13:36:26.942Z,3.00
2018-05-04T13:38:53.585Z,3.40
2018-05-04T13:41:20.225Z,2.37
2018-05-04T13:43:46.851Z,2.60
2018-05-04T13:46:13.484Z,3.23
2018-05-04T13:48:40.828Z,2.70
2018-05-04T13:51:06.777Z,2.43
2018-05-04T13:53:33.399Z,2.87
2018-05-04T13:56:00.038Z,2.90
2018-05-04T13:58:26.712Z,2.47
2018-05-04T14:00:53.335Z,2.20
2018-05-04T14:03:19.963Z,2.80
2018-05-04T14:05:46.587Z,3.03
2018-05-04T14:08:13.227Z,2.37
2018-05-04T14:10:39.907Z,2.83
2018-05-04T14:13:06.527Z,3.00
2018-05-04T14:15:33.188Z,3.90
2018-05-04T14:17:59.819Z,2.20
2018-05-04T14:20:26.432Z,2.80
2018-05-04T14:22:53.071Z,3.90
2018-05-04T14:25:19.763Z,2.13
2018-05-04T14:27:46.387Z,2.53
2018-05-04T14:30:13.007Z,2.60
2018-05-04T14:32:39.643Z,2.23
2018-05-04T14:35:06.267Z,2.03
2018-05-04T14:37:32.927Z,1.50
2018-05-04T14:39:59.583Z,1.80
2018-05-04T14:42:26.263Z,2.37
2018-05-04T14:44:52.878Z,2.30
2018-05-04T14:47:19.520Z,2.20
2018-05-04T14:49:46.134Z,1.83
2018-05-04T14:52:12.759Z,1.70
2018-05-04T14:54:39.403Z,1.77
2018-05-04T14:57:06.018Z,2.10
2018-05-04T14:59:32.639Z,2.70
2018-05-04T15:01:59.280Z,1.70
2018-05-04T15:04:25.905Z,2.40
2018-05-04T15:06:52.600Z,2.30
2018-05-04T15:09:19.247Z,1.90
2018-05-04T15:11:45.979Z,1.70
2018-05-04T15:14:12.594Z,2.33
2018-05-04T15:16:39.244Z,1.80
2018-05-04T15:19:05.900Z,2.87
2018-05-04T15:21:32.523Z,1.90
2018-05-04T15:23:59.285Z,2.13
2018-05-04T15:26:25.907Z,1.80
2018-05-04T15:28:52.551Z,1.50
2018-05-04T15:31:19.296Z,3.57
2018-05-04T15:33:45.917Z,3.20
2018-05-04T15:36:12.539Z,2.13
2018-05-04T15:38:39.191Z,2.28
2018-05-04T15:41:05.819Z,2.83
2018-05-04T15:43:32.451Z,2.20
2018-05-04T15:45:59.210Z,2.37
2018-05-04T15:48:31.440Z,1.97
2018-05-04T15:51:03.780Z,1.90
2018-05-04T15:53:30.414Z,2.23
2018-05-04T15:55:57.034Z,1.97
2018-05-04T15:58:23.694Z,2.00
2018-05-04T16:00:50.311Z,2.00
2018-05-04T16:03:16.935Z,1.77
2018-05-04T16:05:43.606Z,2.20
2018-05-04T16:08:10.234Z,2.10
2018-05-04T16:10:36.886Z,2.10
2018-05-04T16:13:03.522Z,2.30
2018-05-04T16:15:30.139Z,1.67
2018-05-04T16:17:56.771Z,2.00
2018-05-04T16:20:23.471Z,2.53
2018-05-04T16:22:50.089Z,2.17
2018-05-04T16:25:16.702Z,2.65
2018-05-04T16:27:43.330Z,2.70
2018-05-04T16:30:09.963Z,2.80
2018-05-04T16:32:36.666Z,3.37
2018-05-04T16:35:03.253Z,2.53
2018-05-04T16:37:29.920Z,2.65
2018-05-04T16:39:56.534Z,2.60
2018-05-04T16:42:23.175Z,2.40
2018-05-04T16:44:49.808Z,3.15
2018-05-04T16:47:22.515Z,2.25
2018-05-04T16:49:49.151Z,2.40
2018-05-04T16:52:15.781Z,2.75
2018-05-04T16:54:42.415Z,3.25
2018-05-04T16:57:09.041Z,2.72
2018-05-04T16:59:35.668Z,2.67
2018-05-04T17:02:02.353Z,2.72
2018-05-04T17:04:28.984Z,3.10
2018-05-04T17:06:55.602Z,2.80
2018-05-04T17:09:22.241Z,3.20
2018-05-04T17:11:48.859Z,3.67
2018-05-04T17:14:15.573Z,2.95
2018-05-04T17:16:42.219Z,3.28
2018-05-04T17:19:08.842Z,3.90
2018-05-04T17:21:35.462Z,3.57
2018-05-04T17:24:02.104Z,4.05
2018-05-04T17:26:28.728Z,3.80
2018-05-04T17:28:55.356Z,2.78
2018-05-04T17:31:21.996Z,3.45
2018-05-04T17:33:48.620Z,3.50
2018-05-04T17:36:15.295Z,4.15
2018-05-04T17:38:41.934Z,4.10
2018-05-04T17:41:08.546Z,4.20
2018-05-04T17:43:35.169Z,4.87
2018-05-04T17:46:01.863Z,4.20
2018-05-04T17:48:28.491Z,3.60
2018-05-04T17:50:55.158Z,4.07
2018-05-04T17:53:21.870Z,3.40
2018-05-04T17:55:48.544Z,3.72
2018-05-04T17:58:15.254Z,4.07
2018-05-04T18:00:41.889Z,3.47
2018-05-04T18:03:08.564Z,3.80
2018-05-04T18:05:35.180Z,3.30
2018-05-04T18:08:01.814Z,3.40
2018-05-04T18:10:28.451Z,4.28
2018-05-04T18:12:55.188Z,4.35
2018-05-04T18:15:21.832Z,4.22
2018-05-04T18:17:48.462Z,4.47
2018-05-04T18:20:15.083Z,3.60
2018-05-04T18:22:41.718Z,4.35
2018-05-04T18:25:08.392Z,4.10
2018-05-04T18:27:35.016Z,4.65
2018-05-04T18:30:01.769Z,4.27
2018-05-04T18:32:28.386Z,4.20
2018-05-04T18:34:55.059Z,5.33
2018-05-04T18:37:21.690Z,4.75
2018-05-04T18:39:48.315Z,4.60
2018-05-04T18:42:14.945Z,4.00
2018-05-04T18:44:41.603Z,4.90
2018-05-04T18:47:08.268Z,4.57
2018-05-04T18:49:34.907Z,4.43
2018-05-04T18:52:01.614Z,5.45
2018-05-04T18:54:28.303Z,4.20
2018-05-04T18:56:54.921Z,4.15
2018-05-04T18:59:21.564Z,11.07
2018-05-04T19:01:48.188Z,4.70
2018-05-04T19:04:14.813Z,4.00
2018-05-04T19:06:41.554Z,4.68
2018-05-04T19:09:08.204Z,11.45
2018-05-04T19:11:34.844Z,4.25
2018-05-04T19:14:01.474Z,4.95
2018-05-04T19:16:28.111Z,4.50
2018-05-04T19:18:54.739Z,6.25
2018-05-04T19:21:21.396Z,4.83
2018-05-04T19:23:48.067Z,3.83
2018-05-04T19:26:14.788Z,4.82
2018-05-04T19:28:41.434Z,5.15
2018-05-04T19:31:08.059Z,4.25
2018-05-04T19:33:34.697Z,4.15
2018-05-04T19:36:01.481Z,4.25
2018-05-04T19:38:28.130Z,3.80
2018-05-04T19:40:54.825Z,4.85
2018-05-04T19:43:21.581Z,4.00
2018-05-04T19:45:48.195Z,3.75
2018-05-04T19:48:14.815Z,3.75
2018-05-04T19:50:41.456Z,4.45
2018-05-04T19:53:08.079Z,3.87
2018-05-04T19:55:34.711Z,4.55
2018-05-04T19:58:01.354Z,4.15
2018-05-04T20:00:28.032Z,6.00
2018-05-04T20:02:54.659Z,4.20
2018-05-04T20:05:21.303Z,4.35
2018-05-04T20:07:47.931Z,7.00
2018-05-04T20:10:14.676Z,4.03
2018-05-04T20:12:41.272Z,4.47
2018-05-04T20:15:07.892Z,4.93
2018-05-04T20:17:34.529Z,4.33
2018-05-04T20:20:01.167Z,4.00
2018-05-04T20:22:27.795Z,3.90
2018-05-04T20:24:54.547Z,3.83
2018-05-04T20:27:21.196Z,4.20
2018-05-04T20:29:47.827Z,4.70
2018-05-04T20:32:14.446Z,3.70
2018-05-04T20:34:41.085Z,5.80
2018-05-04T20:37:07.712Z,5.70
2018-05-04T20:39:34.333Z,4.80
2018-05-04T20:42:00.980Z,4.12
2018-05-04T20:44:27.603Z,5.25
2018-05-04T20:46:54.219Z,4.12
2018-05-04T20:49:20.863Z,4.90
2018-05-04T20:51:47.483Z,5.47
2018-05-04T20:54:14.170Z,4.80
2018-05-04T20:56:40.817Z,4.20
2018-05-04T20:59:07.451Z,6.35
2018-05-04T21:01:34.111Z,4.22
2018-05-04T21:04:00.848Z,4.87
2018-05-04T21:06:27.493Z,5.80
2018-05-04T21:08:54.115Z,5.18
2018-05-04T21:11:20.870Z,7.20
2018-05-04T21:13:47.500Z,5.20
2018-05-04T21:16:14.161Z,5.55
2018-05-04T21:18:40.898Z,5.17
2018-05-04T21:21:07.520Z,4.32
2018-05-04T21:23:34.143Z,4.80
2018-05-04T21:26:00.783Z,4.22
2018-05-04T21:28:27.408Z,4.72
2018-05-04T21:30:54.033Z,3.92
2018-05-04T21:33:20.679Z,4.97
2018-05-04T21:35:47.322Z,4.87
2018-05-04T21:38:13.948Z,4.15
2018-05-04T21:40:40.652Z,4.55
2018-05-04T21:43:07.280Z,4.07
2018-05-04T21:45:33.918Z,4.12
2018-05-04T21:48:00.554Z,4.53
2018-05-04T21:50:27.226Z,4.90
2018-05-04T21:52:53.852Z,4.20
2018-05-04T21:55:20.482Z,4.57
2018-05-04T21:57:47.110Z,4.70
2018-05-04T22:00:13.736Z,4.40
2018-05-04T22:02:40.418Z,3.70
2018-05-04T22:05:07.034Z,4.40
2018-05-04T22:07:33.671Z,4.85
2018-05-04T22:10:00.439Z,5.03
2018-05-04T22:12:27.064Z,4.60
2018-05-04T22:14:53.682Z,3.95
2018-05-04T22:17:20.318Z,4.25
2018-05-04T22:19:46.939Z,4.40
2018-05-04T22:22:13.607Z,4.30
2018-05-04T22:24:40.352Z,4.80
2018-05-04T22:27:06.976Z,4.27
2018-05-04T22:29:33.594Z,4.18
2018-05-04T22:32:00.227Z,3.62
2018-05-04T22:34:26.860Z,3.85
2018-05-04T22:36:53.483Z,4.07
2018-05-04T22:39:20.180Z,4.20
2018-05-04T22:41:46.825Z,4.90
2018-05-04T22:44:13.450Z,3.75
2018-05-04T22:46:40.203Z,4.77
2018-05-04T22:49:06.827Z,4.20
2018-05-04T22:51:33.459Z,4.90
2018-05-04T22:54:00.108Z,4.10
2018-05-04T22:56:26.802Z,4.63
2018-05-04T22:58:53.362Z,5.03
2018-05-04T23:01:20.040Z,5.12
2018-05-04T23:03:46.654Z,5.00
2018-05-04T23:06:13.284Z,5.40
2018-05-04T23:08:39.923Z,4.20
2018-05-04T23:11:06.552Z,6.10
2018-05-04T23:13:33.176Z,4.65
2018-05-04T23:15:59.899Z,4.65
2018-05-04T23:18:26.514Z,4.80
2018-05-04T23:20:53.245Z,4.28
2018-05-04T23:23:19.813Z,4.70
2018-05-04T23:25:46.556Z,4.00
2018-05-04T23:28:13.171Z,4.70
2018-05-04T23:30:39.810Z,4.43
2018-05-04T23:33:06.426Z,4.53
2018-05-04T23:35:33.082Z,4.65
2018-05-04T23:37:59.728Z,4.50
2018-05-04T23:40:26.347Z,4.60
2018-05-04T23:42:52.972Z,4.10
2018-05-04T23:45:19.611Z,5.00
2018-05-04T23:47:46.231Z,4.90
2018-05-04T23:50:12.855Z,4.93
2018-05-04T23:52:39.490Z,4.53
2018-05-04T23:55:06.204Z,4.10
2018-05-04T23:57:32.835Z,5.35
2018-05-04T23:59:59.475Z,4.80
